createdAt,value
2023-02-27T00:01:53.681Z,1.90
2023-02-27T00:04:20.546Z,1.25
2023-02-27T00:06:47.134Z,1.42
2023-02-27T00:09:13.821Z,1.35
2023-02-27T00:11:40.501Z,1.40
2023-02-27T00:14:07.131Z,1.38
2023-02-27T00:16:34.358Z,1.27
2023-02-27T00:19:04.507Z,1.38
2023-02-27T00:21:32.289Z,1.50
2023-02-27T00:23:59.069Z,1.42
2023-02-27T00:26:25.982Z,1.45
2023-02-27T00:28:52.580Z,1.70
2023-02-27T00:31:19.233Z,1.40
2023-02-27T00:33:45.836Z,1.58
2023-02-27T00:36:12.808Z,1.60
2023-02-27T00:38:39.469Z,1.58
2023-02-27T00:41:06.088Z,2.17
2023-02-27T00:43:32.764Z,1.73
2023-02-27T00:45:59.403Z,1.35
2023-02-27T00:48:26.117Z,1.48
2023-02-27T00:50:52.776Z,1.65
2023-02-27T00:53:19.450Z,1.60
2023-02-27T00:55:46.150Z,1.40
2023-02-27T00:58:12.812Z,1.80
2023-02-27T01:00:39.483Z,1.40
2023-02-27T01:03:06.078Z,1.88
2023-02-27T01:05:32.700Z,1.48
2023-02-27T01:07:59.323Z,1.50
2023-02-27T01:10:26.086Z,1.52
2023-02-27T01:12:52.662Z,1.90
2023-02-27T01:15:19.455Z,1.23
2023-02-27T01:17:47.915Z,1.67
2023-02-27T01:20:15.046Z,1.63
2023-02-27T01:22:41.750Z,1.70
2023-02-27T01:25:09.184Z,1.33
2023-02-27T01:27:36.382Z,1.48
2023-02-27T01:30:03.552Z,1.60
2023-02-27T01:32:30.275Z,1.40
2023-02-27T01:34:56.941Z,2.03
2023-02-27T01:37:23.781Z,1.20
2023-02-27T01:39:50.532Z,1.50
2023-02-27T01:42:23.954Z,1.60
2023-02-27T01:45:09.249Z,1.55
2023-02-27T01:47:37.191Z,1.58
2023-02-27T01:50:04.579Z,2.13
2023-02-27T01:52:32.404Z,1.70
2023-02-27T01:54:59.126Z,1.80
2023-02-27T01:57:26.605Z,1.60
2023-02-27T01:59:53.418Z,1.85
2023-02-27T02:02:26.034Z,1.55
2023-02-27T02:04:55.157Z,1.15
2023-02-27T02:07:22.158Z,1.63
2023-02-27T02:09:51.628Z,2.15
2023-02-27T02:12:21.132Z,1.60
2023-02-27T02:14:47.777Z,1.85
2023-02-27T02:17:43.926Z,1.27
2023-02-27T02:20:43.906Z,1.45
2023-02-27T02:23:37.900Z,1.75
2023-02-27T02:26:24.786Z,1.90
2023-02-27T02:28:57.742Z,1.58
2023-02-27T02:31:30.971Z,1.67
2023-02-27T02:34:00.536Z,2.03
2023-02-27T02:37:04.679Z,1.88
2023-02-27T02:39:59.434Z,1.40
2023-02-27T02:42:31.906Z,1.45
2023-02-27T02:45:07.379Z,1.45
2023-02-27T02:47:40.117Z,1.50
2023-02-27T02:50:28.243Z,1.60
2023-02-27T02:53:07.048Z,1.75
2023-02-27T02:55:44.352Z,1.40
2023-02-27T02:58:21.774Z,1.50
2023-02-27T03:01:00.053Z,1.30
2023-02-27T03:03:34.342Z,1.40
2023-02-27T03:06:14.439Z,1.52
2023-02-27T03:08:56.067Z,1.20
2023-02-27T03:11:27.778Z,1.60
2023-02-27T03:14:21.533Z,1.10
2023-02-27T03:16:53.328Z,1.33
2023-02-27T03:19:28.999Z,1.40
2023-02-27T03:22:08.930Z,1.45
2023-02-27T03:24:42.375Z,1.10
2023-02-27T03:27:09.741Z,1.13
2023-02-27T03:30:02.667Z,1.10
2023-02-27T03:32:35.515Z,1.13
2023-02-27T03:35:03.764Z,1.73
2023-02-27T03:37:58.990Z,0.98
2023-02-27T03:40:39.402Z,1.33
2023-02-27T03:43:12.904Z,1.20
2023-02-27T03:45:50.129Z,1.30
2023-02-27T03:48:16.838Z,1.42
2023-02-27T03:50:43.487Z,1.52
2023-02-27T03:53:21.696Z,0.93
2023-02-27T03:55:50.336Z,1.85
2023-02-27T03:58:17.253Z,1.17
2023-02-27T04:00:43.909Z,1.33
2023-02-27T04:03:11.080Z,1.20
2023-02-27T04:05:37.868Z,1.40
2023-02-27T04:08:42.294Z,1.00
2023-02-27T04:14:23.266Z,1.20
2023-02-27T04:16:52.603Z,1.25
2023-02-27T04:19:51.728Z,1.70
2023-02-27T04:22:38.167Z,1.35
2023-02-27T04:25:44.176Z,1.25
2023-02-27T04:28:18.325Z,1.17
2023-02-27T04:31:24.675Z,1.45
2023-02-27T04:34:14.932Z,1.33
2023-02-27T04:36:48.408Z,1.40
2023-02-27T04:39:23.399Z,1.50
2023-02-27T04:41:59.933Z,1.58
2023-02-27T04:44:29.838Z,1.05
2023-02-27T04:46:58.963Z,1.40
2023-02-27T04:49:31.246Z,1.77
2023-02-27T04:52:18.842Z,1.60
2023-02-27T04:54:57.094Z,1.25
2023-02-27T04:57:32.644Z,1.80
2023-02-27T05:00:05.259Z,1.85
2023-02-27T05:02:36.747Z,1.50
2023-02-27T05:05:11.216Z,1.60
2023-02-27T05:08:02.060Z,1.27
2023-02-27T05:10:51.146Z,1.65
2023-02-27T05:13:22.571Z,1.40
2023-02-27T05:15:54.769Z,1.20
2023-02-27T05:18:22.851Z,1.42
2023-02-27T05:21:08.759Z,1.50
2023-02-27T05:24:03.611Z,1.38
2023-02-27T05:27:18.451Z,1.33
2023-02-27T05:29:51.971Z,1.50
2023-02-27T05:32:33.824Z,1.42
2023-02-27T05:35:34.136Z,1.52
2023-02-27T05:38:11.666Z,1.00
2023-02-27T05:40:44.268Z,1.67
2023-02-27T05:43:16.743Z,1.50
2023-02-27T05:45:46.624Z,1.60
2023-02-27T05:48:55.509Z,1.33
2023-02-27T05:51:27.972Z,1.52
2023-02-27T05:53:59.947Z,1.50
2023-02-27T05:56:29.659Z,1.73
2023-02-27T05:59:03.978Z,1.48
2023-02-27T06:01:30.791Z,1.67
2023-02-27T06:03:58.027Z,1.80
2023-02-27T06:06:24.688Z,1.52
2023-02-27T06:08:51.297Z,1.70
2023-02-27T06:11:18.101Z,1.92
2023-02-27T06:13:44.741Z,1.35
2023-02-27T06:16:13.343Z,1.67
2023-02-27T06:18:40.345Z,1.40
2023-02-27T06:21:06.996Z,1.35
2023-02-27T06:23:33.649Z,1.67
2023-02-27T06:26:00.293Z,1.20
2023-02-27T06:28:26.917Z,1.17
2023-02-27T06:30:55.054Z,1.90
2023-02-27T06:33:21.757Z,1.42
2023-02-27T06:35:49.450Z,1.90
2023-02-27T06:38:16.572Z,1.98
2023-02-27T06:40:43.661Z,2.80
2023-02-27T06:43:10.467Z,1.85
2023-02-27T06:45:37.127Z,1.52
2023-02-27T06:48:03.826Z,1.73
2023-02-27T06:50:30.465Z,1.67
2023-02-27T06:52:57.114Z,1.50
2023-02-27T06:55:25.643Z,1.55
2023-02-27T06:57:52.295Z,1.38
2023-02-27T07:00:19.318Z,1.55
2023-02-27T07:02:46.063Z,1.30
2023-02-27T07:05:12.755Z,1.30
2023-02-27T07:07:40.200Z,1.30
2023-02-27T07:10:11.877Z,1.63
2023-02-27T07:12:39.528Z,1.35
2023-02-27T07:15:07.186Z,1.70
2023-02-27T07:17:33.850Z,1.65
2023-02-27T07:20:00.440Z,1.75
2023-02-27T07:22:27.074Z,1.60
2023-02-27T07:24:53.647Z,1.27
2023-02-27T07:27:20.230Z,1.52
2023-02-27T07:29:46.911Z,1.50
2023-02-27T07:32:13.520Z,1.50
2023-02-27T07:34:40.139Z,1.20
2023-02-27T07:37:06.756Z,1.50
2023-02-27T07:39:33.388Z,1.17
2023-02-27T07:42:00.145Z,2.03
2023-02-27T07:44:26.781Z,1.08
2023-02-27T07:46:53.426Z,1.33
2023-02-27T07:49:20.150Z,1.00
2023-02-27T07:51:46.734Z,1.00
2023-02-27T07:54:13.376Z,0.80
2023-02-27T07:56:39.989Z,1.08
2023-02-27T07:59:06.680Z,1.00
2023-02-27T08:01:33.302Z,1.38
2023-02-27T08:03:59.896Z,0.70
2023-02-27T08:06:26.889Z,1.15
2023-02-27T08:08:53.924Z,1.38
2023-02-27T08:11:20.739Z,1.23
2023-02-27T08:14:03.317Z,1.10
2023-02-27T08:16:31.232Z,1.38
2023-02-27T08:18:58.705Z,0.88
2023-02-27T08:21:25.615Z,1.40
2023-02-27T08:23:52.531Z,1.42
2023-02-27T08:26:19.185Z,1.23
2023-02-27T08:28:45.945Z,1.65
2023-02-27T08:31:13.191Z,1.75
2023-02-27T08:33:40.121Z,1.23
2023-02-27T08:36:08.022Z,1.02
2023-02-27T08:38:34.682Z,0.90
2023-02-27T08:41:01.296Z,1.20
2023-02-27T08:43:27.906Z,0.90
2023-02-27T08:45:54.619Z,0.77
2023-02-27T08:48:21.339Z,0.93
2023-02-27T08:50:48.137Z,1.08
2023-02-27T08:53:14.810Z,0.93
2023-02-27T08:55:42.457Z,0.85
2023-02-27T08:58:10.310Z,0.93
2023-02-27T09:00:37.047Z,0.85
2023-02-27T09:03:03.831Z,1.05
2023-02-27T09:05:30.504Z,1.00
2023-02-27T09:07:57.114Z,0.98
2023-02-27T09:10:23.834Z,1.10
2023-02-27T09:12:50.766Z,0.80
2023-02-27T09:15:17.584Z,1.20
2023-02-27T09:17:44.208Z,0.75
2023-02-27T09:20:12.100Z,1.08
2023-02-27T09:22:39.291Z,0.95
2023-02-27T09:25:06.466Z,1.23
2023-02-27T09:27:33.612Z,1.15
2023-02-27T09:30:00.193Z,1.23
2023-02-27T09:32:27.382Z,1.08
2023-02-27T09:34:54.156Z,1.10
2023-02-27T09:37:20.814Z,1.05
2023-02-27T09:39:47.549Z,0.90
2023-02-27T09:42:22.292Z,0.90
2023-02-27T09:45:00.997Z,1.20
2023-02-27T09:47:56.135Z,1.15
2023-02-27T09:50:34.052Z,1.33
2023-02-27T09:53:00.806Z,1.05
2023-02-27T09:55:33.658Z,1.60
2023-02-27T09:58:07.643Z,1.10
2023-02-27T10:00:45.904Z,1.25
2023-02-27T10:03:34.105Z,1.30
2023-02-27T10:06:25.452Z,1.50
2023-02-27T10:09:10.632Z,1.00
2023-02-27T10:11:54.680Z,1.13
2023-02-27T10:14:33.252Z,1.77
2023-02-27T10:17:04.607Z,1.17
2023-02-27T10:19:35.599Z,1.30
2023-02-27T10:22:06.412Z,1.38
2023-02-27T10:24:42.582Z,1.45
2023-02-27T10:27:15.803Z,1.50
2023-02-27T10:29:42.781Z,1.50
2023-02-27T10:32:21.067Z,1.17
2023-02-27T10:35:07.454Z,1.30
2023-02-27T10:37:37.266Z,1.13
2023-02-27T10:40:06.332Z,1.48
2023-02-27T10:42:37.613Z,1.27
2023-02-27T10:45:05.573Z,1.25
2023-02-27T10:47:32.362Z,1.23
2023-02-27T10:50:00.318Z,1.10
2023-02-27T10:52:27.401Z,1.42
2023-02-27T10:54:54.044Z,1.00
2023-02-27T10:57:31.085Z,1.45
2023-02-27T11:00:05.810Z,1.33
2023-02-27T11:02:38.204Z,1.20
2023-02-27T11:05:07.626Z,1.42
2023-02-27T11:07:37.857Z,1.27
2023-02-27T11:10:13.388Z,1.25
2023-02-27T11:12:42.797Z,1.20
2023-02-27T11:15:15.301Z,1.45
2023-02-27T11:17:43.352Z,1.48
2023-02-27T11:20:35.733Z,1.00
2023-02-27T11:23:13.606Z,1.30
2023-02-27T11:25:40.256Z,1.33
2023-02-27T11:28:29.632Z,1.10
2023-02-27T11:30:57.676Z,1.55
2023-02-27T11:33:26.098Z,1.13
2023-02-27T11:35:57.716Z,1.20
2023-02-27T11:38:28.222Z,1.20
2023-02-27T11:41:06.806Z,1.05
2023-02-27T11:43:49.942Z,1.35
2023-02-27T11:46:46.067Z,1.15
2023-02-27T11:49:28.353Z,1.17
2023-02-27T11:52:15.877Z,1.20
2023-02-27T11:54:49.216Z,1.55
2023-02-27T11:57:32.385Z,1.23
2023-02-27T12:00:06.468Z,1.38
2023-02-27T12:03:06.089Z,0.93
2023-02-27T12:05:39.602Z,1.50
2023-02-27T12:11:13.658Z,1.10
2023-02-27T12:13:43.558Z,1.40
2023-02-27T12:16:33.146Z,0.95
2023-02-27T12:19:04.633Z,1.52
2023-02-27T12:21:33.931Z,1.20
2023-02-27T12:24:23.482Z,0.98
2023-02-27T12:26:57.973Z,1.02
2023-02-27T12:29:48.097Z,1.08
2023-02-27T12:32:28.425Z,0.98
2023-02-27T12:34:56.866Z,1.10
2023-02-27T12:37:26.492Z,0.95
2023-02-27T12:39:56.249Z,1.10
2023-02-27T12:42:39.885Z,1.38
2023-02-27T12:45:27.140Z,1.58
2023-02-27T12:48:13.703Z,1.42
2023-02-27T12:50:58.254Z,1.33
2023-02-27T12:53:42.826Z,1.05
2023-02-27T12:56:18.841Z,1.25
2023-02-27T12:59:24.628Z,0.93
2023-02-27T13:02:05.251Z,1.25
2023-02-27T13:04:49.794Z,1.55
2023-02-27T13:07:38.617Z,1.33
2023-02-27T13:10:22.777Z,0.88
2023-02-27T13:13:18.734Z,1.25
2023-02-27T13:16:13.674Z,1.05
2023-02-27T13:19:17.309Z,0.90
2023-02-27T13:22:06.700Z,0.98
2023-02-27T13:24:34.180Z,1.45
2023-02-27T13:27:26.062Z,1.00
2023-02-27T13:30:16.022Z,1.75
2023-02-27T13:33:13.608Z,1.10
2023-02-27T13:35:43.537Z,1.10
2023-02-27T13:38:32.664Z,0.90
2023-02-27T13:41:24.938Z,0.90
2023-02-27T13:43:56.044Z,0.90
2023-02-27T13:46:28.283Z,1.10
2023-02-27T13:48:57.830Z,1.08
2023-02-27T13:51:37.338Z,1.38
2023-02-27T13:54:12.944Z,1.02
2023-02-27T13:56:44.673Z,1.20
2023-02-27T13:59:12.283Z,1.13
2023-02-27T14:01:39.293Z,1.15
2023-02-27T14:04:07.867Z,1.05
2023-02-27T14:06:44.170Z,1.00
2023-02-27T14:09:15.103Z,1.27
2023-02-27T14:11:55.581Z,0.80
2023-02-27T14:14:44.290Z,0.93
2023-02-27T14:17:37.028Z,0.93
2023-02-27T14:20:30.662Z,0.82
2023-02-27T14:23:15.762Z,0.90
2023-02-27T14:25:52.421Z,0.70
2023-02-27T14:28:48.994Z,0.80
2023-02-27T14:31:40.470Z,0.60
2023-02-27T14:34:10.790Z,0.70
2023-02-27T14:36:53.748Z,0.75
2023-02-27T14:39:23.233Z,0.80
2023-02-27T14:42:08.794Z,0.90
2023-02-27T14:44:43.544Z,0.90
2023-02-27T14:47:25.087Z,0.75
2023-02-27T14:49:51.757Z,0.93
2023-02-27T14:52:24.367Z,1.08
2023-02-27T14:54:53.248Z,1.00
2023-02-27T14:57:28.989Z,1.17
2023-02-27T14:59:55.614Z,0.70
2023-02-27T15:02:22.203Z,0.90
2023-02-27T15:04:54.913Z,0.75
2023-02-27T15:07:26.730Z,0.80
2023-02-27T15:09:59.407Z,1.27
2023-02-27T15:12:27.377Z,0.90
2023-02-27T15:14:57.677Z,0.82
2023-02-27T15:17:36.238Z,0.65
2023-02-27T15:20:19.038Z,0.68
2023-02-27T15:22:45.682Z,0.98
2023-02-27T15:25:31.412Z,0.88
2023-02-27T15:28:02.627Z,1.05
2023-02-27T15:30:30.564Z,0.85
2023-02-27T15:32:57.983Z,0.90
2023-02-27T15:35:32.074Z,0.90
2023-02-27T15:38:00.293Z,0.68
2023-02-27T15:40:30.292Z,0.98
2023-02-27T15:42:58.943Z,0.60
2023-02-27T15:45:31.158Z,0.60
2023-02-27T15:47:58.698Z,0.90
2023-02-27T15:50:36.730Z,0.60
2023-02-27T15:53:14.743Z,0.60
2023-02-27T15:55:44.679Z,1.10
2023-02-27T15:58:20.867Z,0.50
2023-02-27T16:00:47.636Z,1.15
2023-02-27T16:03:22.045Z,1.05
2023-02-27T16:05:53.055Z,0.80
2023-02-27T16:08:20.589Z,0.75
2023-02-27T16:10:47.647Z,0.70
2023-02-27T16:13:21.721Z,0.90
2023-02-27T16:16:22.391Z,0.80
2023-02-27T16:18:57.037Z,0.90
2023-02-27T16:21:26.785Z,0.73
2023-02-27T16:23:54.202Z,0.80
2023-02-27T16:26:27.305Z,1.10
2023-02-27T16:29:00.323Z,1.00
2023-02-27T16:31:38.982Z,1.10
2023-02-27T16:34:46.551Z,1.25
2023-02-27T16:37:30.451Z,1.20
2023-02-27T16:39:57.040Z,1.15
2023-02-27T16:42:24.379Z,1.45
2023-02-27T16:44:51.028Z,1.27
2023-02-27T16:47:17.668Z,1.30
2023-02-27T16:49:46.245Z,1.17
2023-02-27T16:52:12.853Z,1.13
2023-02-27T16:54:39.512Z,1.05
2023-02-27T16:57:06.382Z,1.77
2023-02-27T16:59:41.868Z,1.17
2023-02-27T17:02:13.259Z,1.17
2023-02-27T17:04:43.767Z,1.30
2023-02-27T17:07:15.740Z,1.38
2023-02-27T17:09:46.376Z,0.93
2023-02-27T17:12:13.853Z,1.08
2023-02-27T17:14:40.631Z,1.13
2023-02-27T17:17:07.254Z,1.38
2023-02-27T17:19:34.014Z,1.02
2023-02-27T17:22:00.668Z,1.17
2023-02-27T17:24:27.306Z,1.10
2023-02-27T17:26:54.114Z,1.20
2023-02-27T17:29:21.211Z,1.50
2023-02-27T17:31:48.205Z,1.20
2023-02-27T17:34:16.065Z,1.13
2023-02-27T17:36:43.409Z,1.27
2023-02-27T17:39:13.978Z,1.02
2023-02-27T17:41:41.546Z,1.83
2023-02-27T17:44:11.025Z,1.40
2023-02-27T17:46:38.424Z,1.10
2023-02-27T17:49:05.116Z,1.50
2023-02-27T17:51:32.434Z,1.20
2023-02-27T17:54:04.338Z,1.25
2023-02-27T17:56:31.681Z,1.30
2023-02-27T17:58:58.662Z,1.20
2023-02-27T18:01:26.508Z,1.35
2023-02-27T18:03:54.840Z,1.42
2023-02-27T18:06:22.195Z,1.20
2023-02-27T18:08:49.528Z,1.10
2023-02-27T18:11:19.431Z,1.40
2023-02-27T18:13:47.192Z,1.77
2023-02-27T18:16:14.229Z,1.45
2023-02-27T18:18:42.520Z,2.13
2023-02-27T18:21:16.357Z,1.58
2023-02-27T18:23:43.131Z,1.70
2023-02-27T18:26:27.207Z,1.70
2023-02-27T18:28:59.968Z,1.50
2023-02-27T18:31:30.671Z,2.60
2023-02-27T18:33:57.425Z,1.42
2023-02-27T18:36:24.731Z,1.52
2023-02-27T18:38:51.491Z,1.67
2023-02-27T18:41:18.133Z,1.50
2023-02-27T18:43:44.838Z,1.55
2023-02-27T18:46:12.801Z,1.58
2023-02-27T18:48:40.632Z,1.60
2023-02-27T18:51:12.288Z,1.30
2023-02-27T18:53:40.513Z,1.90
2023-02-27T18:56:09.101Z,1.42
2023-02-27T18:58:36.244Z,1.40
2023-02-27T19:01:04.089Z,2.60
2023-02-27T19:03:31.933Z,1.92
2023-02-27T19:05:58.814Z,1.90
2023-02-27T19:08:29.067Z,1.77
2023-02-27T19:10:56.712Z,2.03
2023-02-27T19:13:23.774Z,1.77
2023-02-27T19:15:50.439Z,1.55
2023-02-27T19:18:17.284Z,2.20
2023-02-27T19:20:43.849Z,1.63
2023-02-27T19:23:11.684Z,1.75
2023-02-27T19:25:38.297Z,1.70
2023-02-27T19:28:06.101Z,1.95
2023-02-27T19:30:32.679Z,1.80
2023-02-27T19:32:59.368Z,1.92
2023-02-27T19:35:25.987Z,1.88
2023-02-27T19:37:56.902Z,2.00
2023-02-27T19:40:24.478Z,1.77
2023-02-27T19:42:51.455Z,2.20
2023-02-27T19:45:18.132Z,2.05
2023-02-27T19:47:46.579Z,1.90
2023-02-27T19:50:13.653Z,2.10
2023-02-27T19:52:40.328Z,2.85
2023-02-27T19:55:07.538Z,2.30
2023-02-27T19:57:35.691Z,1.83
2023-02-27T20:00:05.650Z,2.10
2023-02-27T20:02:32.408Z,2.10
2023-02-27T20:04:59.052Z,2.30
2023-02-27T20:07:28.900Z,2.20
2023-02-27T20:09:56.099Z,2.33
2023-02-27T20:12:23.277Z,2.60
2023-02-27T20:14:50.153Z,2.50
2023-02-27T20:17:16.814Z,2.13
2023-02-27T20:19:43.480Z,2.85
2023-02-27T20:22:10.650Z,2.15
2023-02-27T20:24:37.262Z,2.60
2023-02-27T20:27:04.080Z,2.50
2023-02-27T20:29:30.726Z,2.70
2023-02-27T20:31:57.592Z,2.47
2023-02-27T20:34:26.349Z,2.70
2023-02-27T20:36:57.530Z,2.50
2023-02-27T20:39:24.477Z,2.80
2023-02-27T20:41:51.155Z,2.92
2023-02-27T20:44:17.813Z,2.67
2023-02-27T20:46:45.406Z,2.58
2023-02-27T20:49:15.738Z,3.00
2023-02-27T20:51:42.798Z,3.25
2023-02-27T20:54:13.491Z,2.80
2023-02-27T20:56:41.327Z,2.78
2023-02-27T20:59:12.321Z,3.00
2023-02-27T21:01:39.534Z,2.60
2023-02-27T21:04:06.790Z,3.67
2023-02-27T21:06:34.756Z,3.00
2023-02-27T21:09:05.151Z,3.00
2023-02-27T21:11:33.204Z,2.75
2023-02-27T21:14:04.584Z,2.97
2023-02-27T21:16:31.671Z,2.97
2023-02-27T21:18:58.516Z,2.75
2023-02-27T21:21:33.634Z,2.78
2023-02-27T21:24:00.971Z,2.80
2023-02-27T21:26:35.106Z,2.50
2023-02-27T21:29:06.404Z,3.10
2023-02-27T21:31:34.369Z,2.85
2023-02-27T21:34:03.333Z,2.60
2023-02-27T21:36:33.671Z,2.70
2023-02-27T21:39:07.231Z,2.60
2023-02-27T21:44:05.078Z,2.40
2023-02-27T21:46:32.173Z,2.90
2023-02-27T21:48:59.182Z,2.72
2023-02-27T21:51:38.940Z,3.35
2023-02-27T21:54:09.003Z,3.22
2023-02-27T21:56:35.625Z,3.13
2023-02-27T21:59:02.360Z,3.35
2023-02-27T22:01:30.124Z,3.00
2023-02-27T22:03:57.483Z,2.92
2023-02-27T22:06:26.757Z,3.00
2023-02-27T22:08:58.378Z,2.85
2023-02-27T22:11:27.333Z,3.30
2023-02-27T22:13:54.449Z,3.08
2023-02-27T22:16:21.702Z,2.75
2023-02-27T22:18:49.105Z,2.85
2023-02-27T22:21:22.553Z,3.20
2023-02-27T22:23:50.045Z,3.30
2023-02-27T22:26:24.008Z,2.90
2023-02-27T22:28:52.097Z,3.28
2023-02-27T22:31:27.824Z,3.28
2023-02-27T22:33:58.386Z,2.80
2023-02-27T22:36:29.079Z,2.92
2023-02-27T22:38:56.452Z,3.28
2023-02-27T22:41:29.610Z,2.97
2023-02-27T22:43:57.461Z,3.13
2023-02-27T22:46:35.387Z,3.28
2023-02-27T22:49:05.979Z,2.63
2023-02-27T22:51:32.716Z,3.20
2023-02-27T22:54:01.669Z,3.08
2023-02-27T22:56:29.564Z,2.80
2023-02-27T22:58:56.590Z,2.78
2023-02-27T23:01:25.543Z,3.70
2023-02-27T23:03:55.643Z,3.08
2023-02-27T23:06:26.229Z,3.45
2023-02-27T23:08:52.895Z,3.17
2023-02-27T23:11:21.337Z,2.75
2023-02-27T23:13:48.150Z,3.15
2023-02-27T23:16:15.012Z,3.25
2023-02-27T23:18:45.977Z,3.38
2023-02-27T23:21:18.255Z,3.55
2023-02-27T23:23:45.674Z,3.05
2023-02-27T23:26:12.901Z,3.58
2023-02-27T23:28:40.170Z,3.67
2023-02-27T23:31:08.325Z,3.13
2023-02-27T23:33:35.281Z,3.03
2023-02-27T23:36:02.332Z,2.97
2023-02-27T23:38:29.395Z,3.42
2023-02-27T23:40:56.223Z,3.15
2023-02-27T23:43:23.491Z,3.60
2023-02-27T23:45:50.180Z,3.40
2023-02-27T23:48:16.907Z,3.17
2023-02-27T23:50:44.813Z,3.30
2023-02-27T23:53:13.510Z,3.47
2023-02-27T23:55:41.318Z,3.47
2023-02-27T23:58:10.205Z,3.55
